createdAt,value
2019-04-22T00:02:10.868Z,26.60
2019-04-22T00:04:47.560Z,26.30
2019-04-22T00:07:28.434Z,27.47
2019-04-22T00:10:06.309Z,26.63
2019-04-22T00:14:54.316Z,29.17
2019-04-22T00:17:35.318Z,28.50
2019-04-22T00:19:57.702Z,28.57
2019-04-22T00:24:51.157Z,28.97
2019-04-22T00:27:28.119Z,28.20
2019-04-22T00:29:59.940Z,27.90
2019-04-22T00:32:24.627Z,28.87
2019-04-22T00:34:53.493Z,29.97
2019-04-22T00:37:25.048Z,29.63
2019-04-22T00:39:51.811Z,30.13
2019-04-22T00:42:21.409Z,29.10
2019-04-22T00:44:58.472Z,30.03
2019-04-22T00:47:26.405Z,31.10
2019-04-22T00:52:21.764Z,30.50
2019-04-22T00:54:55.699Z,29.93
2019-04-22T00:57:15.417Z,29.97
2019-04-22T00:59:48.482Z,31.00
2019-04-22T01:02:13.109Z,30.60
2019-04-22T01:04:46.491Z,31.37
2019-04-22T01:07:11.853Z,31.57
2019-04-22T01:09:50.200Z,30.80
2019-04-22T01:12:13.836Z,30.23
2019-04-22T01:14:41.367Z,30.40
2019-04-22T01:17:06.621Z,31.40
2019-04-22T01:19:45.148Z,31.50
2019-04-22T01:22:11.895Z,31.50
2019-04-22T01:24:32.720Z,30.77
2019-04-22T01:26:58.227Z,31.80
2019-04-22T01:29:22.855Z,32.57
2019-04-22T01:31:43.457Z,30.87
2019-04-22T01:34:24.720Z,31.87
2019-04-22T01:36:58.709Z,32.00
2019-04-22T01:39:33.830Z,32.27
2019-04-22T01:42:06.224Z,35.77
2019-04-22T01:44:33.187Z,31.53
2019-04-22T01:47:00.327Z,32.53
2019-04-22T01:49:30.220Z,32.73
2019-04-22T01:54:35.133Z,33.43
2019-04-22T01:57:01.543Z,32.67
2019-04-22T01:59:19.839Z,33.40
2019-04-22T02:01:57.428Z,32.77
2019-04-22T02:04:34.505Z,33.00
2019-04-22T02:06:59.830Z,32.33
2019-04-22T02:11:58.549Z,34.30
2019-04-22T02:14:25.323Z,34.60
2019-04-22T02:16:51.524Z,33.83
2019-04-22T02:19:25.449Z,33.57
2019-04-22T02:21:51.175Z,35.17
2019-04-22T02:24:21.439Z,34.33
2019-04-22T02:29:17.066Z,35.33
2019-04-22T02:31:59.114Z,35.10
2019-04-22T02:36:41.083Z,34.43
2019-04-22T02:41:43.805Z,35.83
2019-04-22T02:44:14.029Z,33.47
2019-04-22T02:46:52.972Z,34.83
2019-04-22T02:49:22.256Z,33.90
2019-04-22T02:51:39.667Z,34.10
2019-04-22T02:56:38.120Z,33.67
2019-04-22T03:04:09.663Z,34.40
2019-04-22T03:09:14.453Z,35.53
2019-04-22T03:11:45.662Z,34.47
2019-04-22T03:19:28.019Z,36.13
2019-04-22T03:21:31.316Z,37.53
2019-04-22T03:24:20.140Z,35.63
2019-04-22T03:26:35.129Z,35.00
2019-04-22T03:28:57.075Z,36.40
2019-04-22T03:35:20.001Z,35.13
2019-04-22T03:39:47.286Z,36.37
2019-04-22T03:44:33.322Z,36.87
2019-04-22T03:52:05.342Z,34.07
2019-04-22T03:57:18.127Z,34.20
2019-04-22T03:59:39.115Z,36.00
2019-04-22T04:01:55.357Z,35.90
2019-04-22T04:04:24.340Z,35.93
2019-04-22T04:07:03.845Z,33.70
2019-04-22T04:16:56.432Z,35.20
2019-04-22T04:19:23.342Z,33.47
2019-04-22T04:21:41.873Z,34.40
2019-04-22T04:26:59.177Z,35.00
2019-04-22T04:29:26.333Z,33.87
2019-04-22T04:34:22.018Z,34.50
2019-04-22T04:36:42.236Z,35.17
2019-04-22T04:39:05.641Z,33.70
2019-04-22T04:41:42.070Z,34.30
2019-04-22T04:44:15.234Z,34.57
2019-04-22T04:49:09.008Z,34.87
2019-04-22T04:51:43.981Z,33.03
2019-04-22T04:54:12.596Z,33.13
2019-04-22T04:59:16.747Z,34.50
2019-04-22T05:01:35.465Z,33.33
2019-04-22T05:04:18.613Z,31.43
2019-04-22T05:09:11.822Z,31.67
2019-04-22T05:11:26.847Z,33.37
2019-04-22T05:14:03.299Z,34.00
2019-04-22T05:18:50.974Z,32.63
2019-04-22T05:21:16.428Z,32.03
2019-04-22T05:23:43.933Z,30.33
2019-04-22T05:26:22.363Z,30.73
2019-04-22T05:28:42.290Z,31.27
2019-04-22T05:31:16.203Z,30.70
2019-04-22T05:33:42.502Z,30.80
2019-04-22T05:36:10.184Z,32.63
2019-04-22T05:38:39.987Z,32.77
2019-04-22T05:41:05.652Z,31.67
2019-04-22T05:43:34.304Z,31.23
2019-04-22T05:46:05.809Z,30.23
2019-04-22T05:48:41.855Z,30.00
2019-04-22T05:51:04.482Z,28.57
2019-04-22T05:53:35.665Z,28.13
2019-04-22T05:56:10.193Z,27.80
2019-04-22T05:58:31.598Z,28.83
2019-04-22T06:01:30.724Z,27.27
2019-04-22T06:03:39.446Z,27.53
2019-04-22T06:06:06.513Z,26.63
2019-04-22T06:08:33.675Z,26.17
2019-04-22T06:11:05.689Z,26.17
2019-04-22T06:13:28.089Z,26.53
2019-04-22T06:15:59.109Z,26.67
2019-04-22T06:18:27.191Z,25.27
2019-04-22T06:21:03.705Z,27.07
2019-04-22T06:23:34.643Z,26.53
2019-04-22T06:26:14.711Z,26.70
2019-04-22T06:28:35.212Z,25.20
2019-04-22T06:33:27.394Z,24.57
2019-04-22T06:35:56.307Z,25.70
2019-04-22T06:40:54.054Z,24.13
2019-04-22T06:43:22.247Z,24.60
2019-04-22T06:45:44.862Z,24.47
2019-04-22T06:53:25.059Z,25.33
2019-04-22T06:55:52.842Z,23.27
2019-04-22T06:58:16.709Z,23.27
2019-04-22T07:00:47.289Z,23.83
2019-04-22T07:05:46.422Z,24.67
2019-04-22T07:10:59.457Z,25.20
2019-04-22T07:13:21.256Z,24.20
2019-04-22T07:18:19.856Z,24.10
2019-04-22T07:20:44.546Z,22.23
2019-04-22T07:23:13.871Z,22.23
2019-04-22T07:25:40.594Z,22.60
2019-04-22T07:28:14.208Z,21.97
2019-04-22T07:30:41.046Z,23.83
2019-04-22T07:35:51.615Z,23.37
2019-04-22T07:38:14.336Z,23.97
2019-04-22T07:40:38.933Z,20.60
2019-04-22T07:43:09.016Z,24.27
2019-04-22T07:45:36.169Z,23.33
2019-04-22T07:48:15.230Z,24.53
2019-04-22T07:50:42.742Z,22.87
2019-04-22T07:53:00.925Z,23.37
2019-04-22T07:55:29.327Z,24.33
2019-04-22T07:58:02.053Z,22.13
2019-04-22T08:00:33.067Z,22.53
2019-04-22T08:03:01.314Z,23.97
2019-04-22T08:08:02.587Z,23.17
2019-04-22T08:10:31.341Z,23.43
2019-04-22T08:12:55.443Z,22.80
2019-04-22T08:15:21.282Z,22.20
2019-04-22T08:20:23.282Z,21.87
2019-04-22T08:22:51.054Z,21.37
2019-04-22T08:25:18.127Z,21.80
2019-04-22T08:27:54.471Z,20.83
2019-04-22T08:30:20.513Z,19.87
2019-04-22T08:32:49.294Z,19.53
2019-04-22T08:35:27.915Z,19.90
2019-04-22T08:37:51.212Z,20.50
2019-04-22T08:40:20.675Z,19.40
2019-04-22T08:42:53.427Z,18.90
2019-04-22T08:45:23.075Z,18.80
2019-04-22T08:47:42.388Z,17.83
2019-04-22T08:50:18.497Z,19.13
2019-04-22T08:52:42.081Z,18.50
2019-04-22T08:55:12.706Z,17.70
2019-04-22T09:00:07.228Z,17.40
2019-04-22T09:02:38.736Z,16.90
2019-04-22T09:05:12.263Z,17.77
2019-04-22T09:07:36.983Z,16.40
2019-04-22T09:10:11.425Z,17.23
2019-04-22T09:15:08.157Z,15.97
2019-04-22T09:17:34.988Z,16.10
2019-04-22T09:20:10.870Z,14.70
2019-04-22T09:22:50.338Z,15.63
2019-04-22T09:24:58.580Z,14.90
2019-04-22T09:30:01.595Z,14.97
2019-04-22T09:32:36.421Z,14.00
2019-04-22T09:34:56.270Z,13.93
2019-04-22T09:37:34.509Z,14.07
2019-04-22T09:40:08.737Z,14.47
2019-04-22T09:44:55.583Z,13.87
2019-04-22T09:47:24.930Z,14.40
2019-04-22T09:50:12.124Z,13.53
2019-04-22T09:52:22.475Z,14.03
2019-04-22T09:55:00.164Z,13.17
2019-04-22T09:57:21.144Z,12.87
2019-04-22T10:00:00.634Z,12.40
2019-04-22T10:04:57.123Z,12.30
2019-04-22T10:07:23.847Z,10.83
2019-04-22T10:09:59.378Z,11.57
2019-04-22T10:12:19.061Z,10.87
2019-04-22T10:17:15.482Z,10.80
2019-04-22T10:19:43.945Z,11.50
2019-04-22T10:22:19.952Z,10.40
2019-04-22T10:24:39.120Z,11.27
2019-04-22T10:27:07.758Z,10.30
2019-04-22T10:29:47.320Z,11.07
2019-04-22T10:32:06.771Z,10.57
2019-04-22T10:34:26.089Z,9.80
2019-04-22T10:36:50.473Z,10.17
2019-04-22T10:39:12.817Z,10.50
2019-04-22T10:41:41.671Z,10.17
2019-04-22T10:44:11.027Z,10.33
2019-04-22T10:46:40.240Z,9.90
2019-04-22T10:49:08.472Z,10.30
2019-04-22T10:51:36.991Z,10.47
2019-04-22T10:54:07.258Z,9.87
2019-04-22T10:56:34.880Z,9.20
2019-04-22T10:59:06.825Z,8.97
2019-04-22T11:01:38.148Z,9.43
2019-04-22T11:04:03.708Z,8.40
2019-04-22T11:06:38.923Z,8.50
2019-04-22T11:09:04.880Z,9.47
2019-04-22T11:11:42.417Z,8.80
2019-04-22T11:14:00.164Z,7.77
2019-04-22T11:16:29.893Z,8.77
2019-04-22T11:18:59.321Z,7.70
2019-04-22T11:21:29.574Z,8.33
2019-04-22T11:23:58.699Z,8.03
2019-04-22T11:26:28.087Z,7.73
2019-04-22T11:28:56.010Z,7.57
2019-04-22T11:31:24.235Z,8.07
2019-04-22T11:33:56.862Z,7.20
2019-04-22T11:36:30.155Z,7.60
2019-04-22T11:39:00.125Z,6.97
2019-04-22T11:41:25.609Z,6.60
2019-04-22T11:43:56.921Z,6.67
2019-04-22T11:46:25.383Z,6.60
2019-04-22T11:48:54.097Z,6.13
2019-04-22T11:51:22.539Z,6.77
2019-04-22T11:53:52.582Z,6.33
2019-04-22T11:56:20.827Z,6.30
2019-04-22T11:58:50.717Z,5.73
2019-04-22T12:01:19.321Z,6.50
2019-04-22T12:03:49.614Z,6.67
2019-04-22T12:06:18.006Z,6.30
2019-04-22T12:08:47.726Z,6.27
2019-04-22T12:11:16.701Z,6.80
2019-04-22T12:13:46.286Z,6.07
2019-04-22T12:16:14.479Z,5.93
2019-04-22T12:18:44.893Z,5.73
2019-04-22T12:21:13.277Z,6.03
2019-04-22T12:23:43.462Z,5.93
2019-04-22T12:26:15.054Z,6.10
2019-04-22T12:28:40.935Z,5.90
2019-04-22T12:31:09.465Z,5.23
2019-04-22T12:33:39.338Z,6.23
2019-04-22T12:36:10.978Z,5.30
2019-04-22T12:38:39.904Z,5.40
2019-04-22T12:41:11.853Z,4.53
2019-04-22T12:43:37.319Z,4.20
2019-04-22T12:46:06.131Z,5.43
2019-04-22T12:48:35.114Z,5.40
2019-04-22T12:51:05.015Z,5.07
2019-04-22T12:53:33.975Z,6.40
2019-04-22T12:56:04.955Z,5.03
2019-04-22T12:58:41.316Z,4.87
2019-04-22T13:01:10.787Z,4.70
2019-04-22T13:03:38.412Z,4.70
2019-04-22T13:06:07.824Z,4.70
2019-04-22T13:08:38.102Z,4.50
2019-04-22T13:11:12.042Z,4.67
2019-04-22T13:13:34.751Z,4.80
2019-04-22T13:16:04.749Z,6.83
2019-04-22T13:18:40.350Z,5.50
2019-04-22T13:21:02.405Z,4.73
2019-04-22T13:23:31.855Z,5.07
2019-04-22T13:26:00.918Z,4.83
2019-04-22T13:28:29.505Z,5.90
2019-04-22T13:31:01.469Z,5.90
2019-04-22T13:33:28.512Z,5.50
2019-04-22T13:35:57.455Z,5.10
2019-04-22T13:38:25.067Z,5.03
2019-04-22T13:41:08.290Z,5.73
2019-04-22T13:43:22.895Z,5.40
2019-04-22T13:45:54.095Z,4.70
2019-04-22T13:48:38.223Z,4.43
2019-04-22T13:51:26.200Z,4.77
2019-04-22T13:56:15.384Z,5.30
2019-04-22T13:58:31.319Z,5.50
2019-04-22T14:00:46.904Z,5.30
2019-04-22T14:03:22.387Z,6.00
2019-04-22T14:05:50.889Z,5.30
2019-04-22T14:08:20.368Z,5.40
2019-04-22T14:10:50.283Z,5.50
2019-04-22T14:13:19.504Z,5.17
2019-04-22T14:15:48.681Z,5.50
2019-04-22T14:18:17.165Z,4.77
2019-04-22T14:20:46.946Z,5.27
2019-04-22T14:23:15.949Z,5.43
2019-04-22T14:25:43.977Z,5.10
2019-04-22T14:28:17.297Z,5.77
2019-04-22T14:30:42.529Z,5.87
2019-04-22T14:33:11.910Z,4.33
2019-04-22T14:35:39.896Z,4.70
2019-04-22T14:38:08.495Z,5.30
2019-04-22T14:40:38.572Z,4.67
2019-04-22T14:43:33.280Z,5.20
2019-04-22T14:48:36.233Z,5.00
2019-04-22T14:50:59.125Z,5.83
2019-04-22T14:53:27.643Z,4.50
2019-04-22T14:55:36.724Z,4.67
2019-04-22T14:58:02.664Z,5.20
2019-04-22T15:00:31.750Z,3.90
2019-04-22T15:03:01.668Z,4.50
2019-04-22T15:05:30.472Z,4.73
2019-04-22T15:07:59.285Z,3.87
2019-04-22T15:10:28.254Z,3.97
2019-04-22T15:12:59.122Z,4.63
2019-04-22T15:15:31.291Z,4.10
2019-04-22T15:18:03.917Z,3.97
2019-04-22T15:20:39.555Z,3.40
2019-04-22T15:23:08.617Z,3.70
2019-04-22T15:25:36.935Z,3.57
2019-04-22T15:28:05.896Z,3.93
2019-04-22T15:30:37.683Z,3.53
2019-04-22T15:33:07.471Z,3.70
2019-04-22T15:35:35.489Z,3.80
2019-04-22T15:38:04.789Z,3.50
2019-04-22T15:40:34.433Z,3.40
2019-04-22T15:43:02.635Z,3.70
2019-04-22T15:45:30.736Z,3.47
2019-04-22T15:47:59.879Z,6.70
2019-04-22T15:50:30.689Z,4.67
2019-04-22T15:53:00.743Z,4.13
2019-04-22T15:55:29.205Z,3.80
2019-04-22T15:57:59.538Z,4.67
2019-04-22T16:00:38.321Z,4.03
2019-04-22T16:02:57.566Z,4.43
2019-04-22T16:05:25.378Z,4.33
2019-04-22T16:07:54.982Z,7.50
2019-04-22T16:10:23.951Z,4.53
2019-04-22T16:13:02.788Z,6.10
2019-04-22T16:15:24.723Z,7.50
2019-04-22T16:17:54.977Z,4.03
2019-04-22T16:20:23.564Z,8.40
2019-04-22T16:23:20.834Z,6.37
2019-04-22T16:25:53.381Z,5.97
2019-04-22T16:28:21.925Z,5.33
2019-04-22T16:30:51.093Z,9.20
2019-04-22T16:33:19.589Z,9.20
2019-04-22T16:35:48.945Z,4.17
2019-04-22T16:38:17.279Z,8.70
2019-04-22T16:40:46.099Z,35.23
2019-04-22T16:43:16.484Z,4.10
2019-04-22T16:45:45.381Z,20.00
2019-04-22T16:48:13.667Z,3.73
2019-04-22T16:50:46.619Z,7.33
2019-04-22T16:53:14.248Z,4.67
2019-04-22T16:55:42.777Z,24.60
2019-04-22T16:58:12.689Z,12.90
2019-04-22T17:00:42.763Z,4.07
2019-04-22T17:03:43.018Z,4.13
2019-04-22T17:06:17.450Z,4.60
2019-04-22T17:08:46.681Z,7.80
2019-04-22T17:11:15.973Z,4.90
2019-04-22T17:13:46.101Z,5.17
2019-04-22T17:16:13.972Z,6.83
2019-04-22T17:18:43.614Z,3.00
2019-04-22T17:21:12.981Z,3.60
2019-04-22T17:23:41.348Z,4.27
2019-04-22T17:26:10.613Z,3.90
2019-04-22T17:28:39.538Z,3.80
2019-04-22T17:31:07.022Z,4.67
2019-04-22T17:33:37.130Z,2.70
2019-04-22T17:36:05.397Z,3.00
2019-04-22T17:38:42.810Z,2.30
2019-04-22T17:41:18.725Z,2.67
2019-04-22T17:43:53.829Z,7.23
2019-04-22T17:46:48.665Z,2.30
2019-04-22T17:49:37.184Z,2.53
2019-04-22T17:52:10.686Z,2.20
2019-04-22T17:54:30.738Z,2.20
2019-04-22T17:57:06.358Z,2.10
2019-04-22T17:59:35.935Z,2.27
2019-04-22T18:02:05.787Z,2.53
2019-04-22T18:04:14.402Z,2.90
2019-04-22T18:07:15.791Z,2.40
2019-04-22T18:09:51.452Z,2.77
2019-04-22T18:12:15.740Z,4.07
2019-04-22T18:14:55.890Z,2.93
2019-04-22T18:17:08.447Z,3.00
2019-04-22T18:19:32.567Z,2.97
2019-04-22T18:22:01.195Z,3.30
2019-04-22T18:24:25.888Z,2.40
2019-04-22T18:27:06.950Z,2.03
2019-04-22T18:29:33.003Z,2.27
2019-04-22T18:31:55.790Z,2.47
2019-04-22T18:34:25.594Z,1.97
2019-04-22T18:36:59.112Z,2.07
2019-04-22T18:39:37.031Z,2.00
2019-04-22T18:41:58.608Z,2.00
2019-04-22T18:44:34.826Z,1.53
2019-04-22T18:46:56.402Z,1.90
2019-04-22T18:49:27.784Z,2.27
2019-04-22T18:52:04.299Z,2.10
2019-04-22T18:54:42.302Z,2.07
2019-04-22T18:57:09.778Z,1.63
2019-04-22T18:59:27.833Z,2.27
2019-04-22T19:01:57.611Z,2.00
2019-04-22T19:04:27.443Z,2.20
2019-04-22T19:07:15.457Z,2.20
2019-04-22T19:09:41.435Z,2.10
2019-04-22T19:12:30.668Z,2.00
2019-04-22T19:14:45.313Z,2.17
2019-04-22T19:17:19.035Z,2.23
2019-04-22T19:19:46.861Z,2.23
2019-04-22T19:22:03.534Z,2.00
2019-04-22T19:24:28.920Z,2.17
2019-04-22T19:27:02.107Z,2.20
2019-04-22T19:29:31.655Z,1.70
2019-04-22T19:32:01.286Z,1.93
2019-04-22T19:34:31.792Z,2.07
2019-04-22T19:37:03.583Z,2.37
2019-04-22T19:39:25.027Z,2.30
2019-04-22T19:42:08.221Z,2.40
2019-04-22T19:44:29.255Z,2.60
2019-04-22T19:47:18.630Z,2.47
2019-04-22T19:49:31.745Z,2.67
2019-04-22T19:54:23.213Z,3.00
2019-04-22T19:56:41.495Z,3.30
2019-04-22T19:59:15.002Z,3.30
2019-04-22T20:02:00.636Z,3.30
2019-04-22T20:04:47.979Z,3.23
2019-04-22T20:07:13.009Z,3.30
2019-04-22T20:09:46.830Z,3.70
2019-04-22T20:12:13.520Z,3.53
2019-04-22T20:14:43.572Z,3.60
2019-04-22T20:17:00.697Z,3.47
2019-04-22T20:19:45.457Z,3.27
2019-04-22T20:22:09.070Z,3.60
2019-04-22T20:24:20.724Z,2.90
2019-04-22T20:27:02.980Z,2.63
2019-04-22T20:29:40.090Z,2.90
2019-04-22T20:32:05.295Z,2.83
2019-04-22T20:34:35.536Z,3.70
2019-04-22T20:39:36.729Z,2.73
2019-04-22T20:42:12.578Z,2.90
2019-04-22T20:44:37.277Z,2.80
2019-04-22T20:46:58.979Z,3.23
2019-04-22T20:49:30.938Z,3.40
2019-04-22T20:52:06.356Z,3.27
2019-04-22T20:54:23.251Z,3.03
2019-04-22T20:56:51.855Z,2.87
2019-04-22T20:59:24.272Z,3.03
2019-04-22T21:01:49.267Z,3.27
2019-04-22T21:04:11.577Z,2.97
2019-04-22T21:06:47.276Z,2.70
2019-04-22T21:09:22.052Z,3.10
2019-04-22T21:11:45.143Z,2.90
2019-04-22T21:14:16.136Z,2.70
2019-04-22T21:16:51.643Z,2.90
2019-04-22T21:19:29.644Z,2.70
2019-04-22T21:21:50.195Z,2.60
2019-04-22T21:24:09.217Z,2.60
2019-04-22T21:26:43.781Z,3.00
2019-04-22T21:29:13.315Z,2.67
2019-04-22T21:31:50.274Z,2.77
2019-04-22T21:34:10.260Z,3.00
2019-04-22T21:36:41.297Z,3.20
2019-04-22T21:39:09.659Z,3.40
2019-04-22T21:41:44.740Z,3.20
2019-04-22T21:44:12.457Z,2.77
2019-04-22T21:46:42.581Z,3.30
2019-04-22T21:49:16.582Z,6.60
2019-04-22T21:51:47.079Z,2.60
2019-04-22T21:56:56.549Z,2.90
2019-04-22T21:59:15.568Z,3.00
2019-04-22T22:01:50.027Z,3.77
2019-04-22T22:04:15.249Z,2.70
2019-04-22T22:06:33.635Z,2.30
2019-04-22T22:09:07.170Z,2.27
2019-04-22T22:11:35.811Z,2.50
2019-04-22T22:14:07.588Z,3.00
2019-04-22T22:16:33.562Z,2.43
2019-04-22T22:19:08.146Z,2.47
2019-04-22T22:21:43.890Z,2.00
2019-04-22T22:24:11.559Z,2.43
2019-04-22T22:26:35.290Z,2.30
2019-04-22T22:29:05.296Z,2.30
2019-04-22T22:31:40.118Z,2.70
2019-04-22T22:34:09.483Z,2.17
2019-04-22T22:36:23.601Z,2.50
2019-04-22T22:38:55.748Z,2.20
2019-04-22T22:41:09.997Z,2.33
2019-04-22T22:43:43.624Z,1.90
2019-04-22T22:46:22.198Z,2.57
2019-04-22T22:48:59.795Z,2.87
2019-04-22T22:51:36.854Z,2.13
2019-04-22T22:54:00.214Z,3.27
2019-04-22T22:56:25.335Z,6.07
2019-04-22T22:58:52.331Z,2.50
2019-04-22T23:01:23.367Z,2.20
2019-04-22T23:04:08.867Z,2.37
2019-04-22T23:06:27.597Z,2.40
2019-04-22T23:08:52.699Z,1.97
2019-04-22T23:11:20.606Z,3.23
2019-04-22T23:13:49.277Z,2.47
2019-04-22T23:16:10.428Z,2.23
2019-04-22T23:18:25.868Z,2.77
2019-04-22T23:20:57.222Z,2.10
2019-04-22T23:23:43.954Z,2.60
2019-04-22T23:26:13.804Z,2.27
2019-04-22T23:28:51.067Z,2.20
2019-04-22T23:31:20.725Z,1.90
2019-04-22T23:33:57.247Z,2.07
2019-04-22T23:36:25.867Z,2.30
2019-04-22T23:39:09.772Z,2.27
2019-04-22T23:41:51.077Z,2.37
2019-04-22T23:44:12.802Z,2.37
2019-04-22T23:46:34.745Z,2.27
2019-04-22T23:49:04.474Z,2.83
2019-04-22T23:51:39.687Z,2.03
2019-04-22T23:54:10.721Z,2.43
2019-04-22T23:56:32.097Z,2.27
2019-04-22T23:59:09.782Z,2.50
